Terminal Aerodrome Forecast
Issued by NWS Cleveland, OH

Home | Current Version | Previous Version | Graphics & Text | Print | Product List | Glossary On
Versions: 1 2 3 4 5 6 7 8 9 10 11 12 13 14 15 16 17
192
FTUS41 KCLE 191740
TAFERI
TAF
KERI 191740Z 1918/2018 18020G30KT P6SM OVC050
     FM192100 17015G25KT P6SM -SHRA BKN060
      TEMPO 1922/2001 3SM TSRA OVC030CB
     FM200100 20010KT P6SM -SHRA OVC030
     FM200600 24010KT 6SM -SHRA OVC015
     FM200800 30010KT P6SM OVC007
     FM201700 28007KT P6SM BKN035=

USA.gov is the U.S. government's official web portal to all federal, state and local government web resources and services.